Terminal Aerodrome Forecast
Issued by NWS Blacksburg, VA

Home | Current Version | Previous Version | Text Only | Print | Product List | Glossary On
Versions: 1 2 3 4 5 6 7 8 9 10 11 12 13 14 15 16 17 18 19 20 21 22 23 24 25 26 27 28 29 30 31 32
282
FTUS41 KRNK 191337 AAA
TAFROA
TAF AMD
KROA 191337Z 1914/2012 30020G35KT P6SM BKN040
     FM192300 31015G26KT P6SM SCT050
     FM200600 20012KT P6SM SKC=

USA.gov is the U.S. government's official web portal to all federal, state and local government web resources and services.